Arnesen, Minnesota
Current Conditions -  °F | °C
As of 6:14 PM on Saturday 25 Oct 2014 (Local Time) from KRRT Reporting Station
Clear Clear  
Wind Chill: 52°   Ceiling: Unl
Heat Index: 52°   Visibility: 10mi
Dew Point: 28°   Wind: 7mph
Humidity: 41%   Direction: 290°WNW
Pressure: 29.99"   Gusts: NA
Location:  48.6345°N, 95.1786°W
Report Text: KRRT 252314Z AUTO 29006KT 10SM CLR 11/M02 A2999 RMK AO2
Loading
Personal Weather Stations






























Interactive Weather Map
Tropical Storm Tracking
New forecast layout! Learn more

10-Day Weather Forecast

Advertisements
Track Severe Weather on mobile